sensor_id;sensor_type;location;lat;lon;timestamp;P1;durP1;ratioP1;P2;durP2;ratioP2
59876;SDS011;45749;51.140;17.184;2022-09-27T00:01:03;18.70;;;15.60;;
59876;SDS011;45749;51.140;17.184;2022-09-27T00:03:36;22.35;;;17.17;;
59876;SDS011;45749;51.140;17.184;2022-09-27T00:08:42;20.82;;;16.48;;
59876;SDS011;45749;51.140;17.184;2022-09-27T00:11:14;22.50;;;16.95;;
59876;SDS011;45749;51.140;17.184;2022-09-27T00:13:51;19.73;;;16.07;;
59876;SDS011;45749;51.140;17.184;2022-09-27T00:16:20;18.98;;;14.98;;
59876;SDS011;45749;51.140;17.184;2022-09-27T00:18:48;21.97;;;16.62;;
59876;SDS011;45749;51.140;17.184;2022-09-27T00:21:14;27.65;;;18.45;;
59876;SDS011;45749;51.140;17.184;2022-09-27T00:23:40;20.05;;;16.20;;
59876;SDS011;45749;51.140;17.184;2022-09-27T00:26:06;26.00;;;17.10;;
59876;SDS011;45749;51.140;17.184;2022-09-27T00:28:35;19.85;;;15.85;;
59876;SDS011;45749;51.140;17.184;2022-09-27T00:31:01;19.60;;;15.70;;
59876;SDS011;45749;51.140;17.184;2022-09-27T00:33:28;20.45;;;17.02;;
59876;SDS011;45749;51.140;17.184;2022-09-27T00:35:54;21.25;;;16.57;;
59876;SDS011;45749;51.140;17.184;2022-09-27T00:38:22;20.05;;;15.70;;
59876;SDS011;45749;51.140;17.184;2022-09-27T00:40:48;19.40;;;15.68;;
59876;SDS011;45749;51.140;17.184;2022-09-27T00:43:15;19.05;;;15.28;;
59876;SDS011;45749;51.140;17.184;2022-09-27T00:45:47;19.48;;;16.12;;
59876;SDS011;45749;51.140;17.184;2022-09-27T00:48:24;19.52;;;15.72;;
59876;SDS011;45749;51.140;17.184;2022-09-27T00:50:54;21.10;;;17.50;;
59876;SDS011;45749;51.140;17.184;2022-09-27T00:53:26;19.70;;;16.45;;
59876;SDS011;45749;51.140;17.184;2022-09-27T00:55:59;20.65;;;16.15;;
59876;SDS011;45749;51.140;17.184;2022-09-27T00:58:30;20.25;;;15.68;;
59876;SDS011;45749;51.140;17.184;2022-09-27T01:01:04;25.57;;;15.65;;
59876;SDS011;45749;51.140;17.184;2022-09-27T01:06:35;20.75;;;13.95;;
59876;SDS011;45749;51.140;17.184;2022-09-27T01:09:03;19.10;;;15.68;;
59876;SDS011;45749;51.140;17.184;2022-09-27T01:11:34;18.67;;;14.75;;
59876;SDS011;45749;51.140;17.184;2022-09-27T01:20:18;20.05;;;15.75;;
59876;SDS011;45749;51.140;17.184;2022-09-27T01:31:07;20.80;;;16.40;;
59876;SDS011;45749;51.140;17.184;2022-09-27T01:37:02;19.12;;;16.52;;
59876;SDS011;45749;51.140;17.184;2022-09-27T01:42:39;18.57;;;15.95;;
59876;SDS011;45749;51.140;17.184;2022-09-27T01:45:29;24.15;;;16.02;;
59876;SDS011;45749;51.140;17.184;2022-09-27T01:48:12;20.92;;;16.25;;
59876;SDS011;45749;51.140;17.184;2022-09-27T01:50:39;21.65;;;16.45;;
59876;SDS011;45749;51.140;17.184;2022-09-27T01:53:17;18.50;;;15.58;;
59876;SDS011;45749;51.140;17.184;2022-09-27T01:55:47;22.48;;;17.82;;
59876;SDS011;45749;51.140;17.184;2022-09-27T01:58:23;22.35;;;17.23;;
59876;SDS011;45749;51.140;17.184;2022-09-27T02:00:49;22.90;;;17.02;;
59876;SDS011;45749;51.140;17.184;2022-09-27T02:03:19;26.02;;;19.40;;
59876;SDS011;45749;51.140;17.184;2022-09-27T02:05:56;23.38;;;18.60;;
59876;SDS011;45749;51.140;17.184;2022-09-27T02:08:34;22.60;;;16.57;;
59876;SDS011;45749;51.140;17.184;2022-09-27T02:11:20;21.48;;;17.95;;
59876;SDS011;45749;51.140;17.184;2022-09-27T02:13:52;20.77;;;17.40;;
59876;SDS011;45749;51.140;17.184;2022-09-27T02:24:23;24.65;;;17.95;;
59876;SDS011;45749;51.140;17.184;2022-09-27T02:27:00;25.45;;;18.05;;
59876;SDS011;45749;51.140;17.184;2022-09-27T02:29:44;22.77;;;16.87;;
59876;SDS011;45749;51.140;17.184;2022-09-27T02:32:16;22.80;;;16.25;;
59876;SDS011;45749;51.140;17.184;2022-09-27T02:34:42;19.32;;;15.55;;
59876;SDS011;45749;51.140;17.184;2022-09-27T02:37:11;17.87;;;14.20;;
59876;SDS011;45749;51.140;17.184;2022-09-27T02:39:38;19.20;;;14.25;;
59876;SDS011;45749;51.140;17.184;2022-09-27T02:42:03;18.05;;;14.55;;
59876;SDS011;45749;51.140;17.184;2022-09-27T02:44:31;18.82;;;15.43;;
59876;SDS011;45749;51.140;17.184;2022-09-27T02:47:06;16.85;;;13.55;;
59876;SDS011;45749;51.140;17.184;2022-09-27T02:55:13;19.17;;;14.70;;
59876;SDS011;45749;51.140;17.184;2022-09-27T03:00:48;20.85;;;14.07;;
59876;SDS011;45749;51.140;17.184;2022-09-27T03:03:44;18.67;;;15.68;;
59876;SDS011;45749;51.140;17.184;2022-09-27T03:06:15;16.17;;;13.43;;
59876;SDS011;45749;51.140;17.184;2022-09-27T03:08:44;19.27;;;14.55;;
59876;SDS011;45749;51.140;17.184;2022-09-27T03:11:10;22.15;;;16.67;;
59876;SDS011;45749;51.140;17.184;2022-09-27T03:13:43;23.47;;;17.55;;
59876;SDS011;45749;51.140;17.184;2022-09-27T03:16:10;19.90;;;15.43;;
59876;SDS011;45749;51.140;17.184;2022-09-27T03:18:36;18.77;;;14.38;;
59876;SDS011;45749;51.140;17.184;2022-09-27T03:21:02;19.57;;;14.85;;
59876;SDS011;45749;51.140;17.184;2022-09-27T03:23:28;19.60;;;15.43;;
59876;SDS011;45749;51.140;17.184;2022-09-27T03:25:54;17.37;;;14.35;;
59876;SDS011;45749;51.140;17.184;2022-09-27T03:28:20;18.87;;;15.70;;
59876;SDS011;45749;51.140;17.184;2022-09-27T03:30:46;17.52;;;13.50;;
59876;SDS011;45749;51.140;17.184;2022-09-27T03:33:12;17.65;;;14.15;;
59876;SDS011;45749;51.140;17.184;2022-09-27T03:35:38;19.73;;;14.93;;
59876;SDS011;45749;51.140;17.184;2022-09-27T03:38:07;17.82;;;14.38;;
59876;SDS011;45749;51.140;17.184;2022-09-27T03:40:34;20.50;;;15.25;;
59876;SDS011;45749;51.140;17.184;2022-09-27T03:43:01;21.55;;;13.90;;
59876;SDS011;45749;51.140;17.184;2022-09-27T03:45:27;20.15;;;14.85;;
59876;SDS011;45749;51.140;17.184;2022-09-27T03:47:53;17.85;;;14.95;;
59876;SDS011;45749;51.140;17.184;2022-09-27T03:50:19;19.50;;;15.40;;
59876;SDS011;45749;51.140;17.184;2022-09-27T03:52:45;16.00;;;13.40;;
59876;SDS011;45749;51.140;17.184;2022-09-27T03:55:12;20.05;;;15.13;;
59876;SDS011;45749;51.140;17.184;2022-09-27T03:57:38;17.40;;;14.20;;
59876;SDS011;45749;51.140;17.184;2022-09-27T04:00:11;19.90;;;15.78;;
59876;SDS011;45749;51.140;17.184;2022-09-27T04:02:38;22.37;;;14.70;;
59876;SDS011;45749;51.140;17.184;2022-09-27T04:05:05;18.50;;;14.10;;
59876;SDS011;45749;51.140;17.184;2022-09-27T04:07:31;20.85;;;15.03;;
59876;SDS011;45749;51.140;17.184;2022-09-27T04:09:57;17.12;;;14.15;;
59876;SDS011;45749;51.140;17.184;2022-09-27T04:12:23;18.60;;;14.80;;
59876;SDS011;45749;51.140;17.184;2022-09-27T04:14:49;17.95;;;14.40;;
59876;SDS011;45749;51.140;17.184;2022-09-27T04:17:15;19.92;;;14.28;;
59876;SDS011;45749;51.140;17.184;2022-09-27T04:19:41;18.57;;;13.98;;
59876;SDS011;45749;51.140;17.184;2022-09-27T04:22:07;21.40;;;14.53;;
59876;SDS011;45749;51.140;17.184;2022-09-27T04:24:33;18.60;;;14.30;;
59876;SDS011;45749;51.140;17.184;2022-09-27T04:26:59;19.27;;;14.25;;
59876;SDS011;45749;51.140;17.184;2022-09-27T04:29:25;18.57;;;14.78;;
59876;SDS011;45749;51.140;17.184;2022-09-27T04:31:52;21.48;;;15.53;;
59876;SDS011;45749;51.140;17.184;2022-09-27T04:34:18;19.07;;;13.95;;
59876;SDS011;45749;51.140;17.184;2022-09-27T04:36:46;20.60;;;15.23;;
59876;SDS011;45749;51.140;17.184;2022-09-27T04:39:11;21.33;;;14.65;;
59876;SDS011;45749;51.140;17.184;2022-09-27T04:41:37;18.40;;;14.78;;
59876;SDS011;45749;51.140;17.184;2022-09-27T04:44:04;17.70;;;14.43;;
59876;SDS011;45749;51.140;17.184;2022-09-27T04:46:30;20.12;;;13.48;;
59876;SDS011;45749;51.140;17.184;2022-09-27T04:48:57;18.62;;;14.35;;
59876;SDS011;45749;51.140;17.184;2022-09-27T04:51:24;19.80;;;14.30;;
59876;SDS011;45749;51.140;17.184;2022-09-27T04:53:51;19.30;;;13.98;;
59876;SDS011;45749;51.140;17.184;2022-09-27T04:56:17;19.40;;;14.80;;
59876;SDS011;45749;51.140;17.184;2022-09-27T04:58:43;18.57;;;14.58;;
59876;SDS011;45749;51.140;17.184;2022-09-27T05:01:09;19.65;;;14.30;;
59876;SDS011;45749;51.140;17.184;2022-09-27T05:03:35;19.35;;;14.85;;
59876;SDS011;45749;51.140;17.184;2022-09-27T05:06:01;17.60;;;13.95;;
59876;SDS011;45749;51.140;17.184;2022-09-27T05:08:28;21.20;;;14.93;;
59876;SDS011;45749;51.140;17.184;2022-09-27T05:10:53;19.27;;;14.70;;
59876;SDS011;45749;51.140;17.184;2022-09-27T05:13:20;19.77;;;14.45;;
59876;SDS011;45749;51.140;17.184;2022-09-27T05:15:46;16.37;;;13.28;;
59876;SDS011;45749;51.140;17.184;2022-09-27T05:18:12;18.45;;;14.35;;
59876;SDS011;45749;51.140;17.184;2022-09-27T05:20:38;18.42;;;13.95;;
59876;SDS011;45749;51.140;17.184;2022-09-27T05:23:04;19.02;;;13.93;;
59876;SDS011;45749;51.140;17.184;2022-09-27T05:25:31;17.98;;;14.20;;
59876;SDS011;45749;51.140;17.184;2022-09-27T05:27:57;19.57;;;14.98;;
59876;SDS011;45749;51.140;17.184;2022-09-27T05:30:26;17.73;;;14.70;;
59876;SDS011;45749;51.140;17.184;2022-09-27T05:32:52;21.20;;;14.07;;
59876;SDS011;45749;51.140;17.184;2022-09-27T05:35:18;18.20;;;13.32;;
59876;SDS011;45749;51.140;17.184;2022-09-27T05:37:52;20.35;;;14.23;;
59876;SDS011;45749;51.140;17.184;2022-09-27T05:40:20;24.05;;;15.35;;
59876;SDS011;45749;51.140;17.184;2022-09-27T05:42:54;17.90;;;13.68;;
59876;SDS011;45749;51.140;17.184;2022-09-27T05:45:20;19.50;;;14.60;;
59876;SDS011;45749;51.140;17.184;2022-09-27T05:47:54;19.73;;;13.20;;
59876;SDS011;45749;51.140;17.184;2022-09-27T05:50:23;20.17;;;14.80;;
59876;SDS011;45749;51.140;17.184;2022-09-27T05:52:50;18.45;;;15.60;;
59876;SDS011;45749;51.140;17.184;2022-09-27T05:55:17;20.37;;;14.75;;
59876;SDS011;45749;51.140;17.184;2022-09-27T05:57:53;16.70;;;13.80;;
59876;SDS011;45749;51.140;17.184;2022-09-27T06:00:23;19.17;;;13.80;;
59876;SDS011;45749;51.140;17.184;2022-09-27T06:02:59;19.92;;;15.05;;
59876;SDS011;45749;51.140;17.184;2022-09-27T06:05:26;17.40;;;14.80;;
59876;SDS011;45749;51.140;17.184;2022-09-27T06:07:58;18.67;;;15.43;;
59876;SDS011;45749;51.140;17.184;2022-09-27T06:10:31;20.48;;;15.25;;
59876;SDS011;45749;51.140;17.184;2022-09-27T06:13:10;20.10;;;15.18;;
59876;SDS011;45749;51.140;17.184;2022-09-27T06:15:40;20.62;;;17.00;;
59876;SDS011;45749;51.140;17.184;2022-09-27T06:18:08;17.92;;;14.43;;
59876;SDS011;45749;51.140;17.184;2022-09-27T06:20:38;19.02;;;14.45;;
59876;SDS011;45749;51.140;17.184;2022-09-27T06:23:09;22.48;;;15.93;;
59876;SDS011;45749;51.140;17.184;2022-09-27T06:25:38;19.15;;;14.83;;
59876;SDS011;45749;51.140;17.184;2022-09-27T06:28:09;18.35;;;14.70;;
59876;SDS011;45749;51.140;17.184;2022-09-27T06:30:39;18.98;;;14.38;;
59876;SDS011;45749;51.140;17.184;2022-09-27T06:33:12;19.92;;;16.00;;
59876;SDS011;45749;51.140;17.184;2022-09-27T06:35:44;19.55;;;15.83;;
59876;SDS011;45749;51.140;17.184;2022-09-27T06:38:12;20.12;;;15.45;;
59876;SDS011;45749;51.140;17.184;2022-09-27T06:40:40;20.05;;;15.88;;
59876;SDS011;45749;51.140;17.184;2022-09-27T06:43:16;22.15;;;16.80;;
59876;SDS011;45749;51.140;17.184;2022-09-27T06:45:46;22.35;;;16.55;;
59876;SDS011;45749;51.140;17.184;2022-09-27T06:48:18;21.10;;;16.97;;
59876;SDS011;45749;51.140;17.184;2022-09-27T06:50:44;20.27;;;15.15;;
59876;SDS011;45749;51.140;17.184;2022-09-27T06:53:13;25.43;;;15.98;;
59876;SDS011;45749;51.140;17.184;2022-09-27T06:55:51;21.10;;;16.77;;
59876;SDS011;45749;51.140;17.184;2022-09-27T06:58:12;19.80;;;15.47;;
59876;SDS011;45749;51.140;17.184;2022-09-27T07:01:15;21.82;;;16.77;;
59876;SDS011;45749;51.140;17.184;2022-09-27T07:03:30;21.12;;;17.07;;
59876;SDS011;45749;51.140;17.184;2022-09-27T07:06:02;21.82;;;16.73;;
59876;SDS011;45749;51.140;17.184;2022-09-27T07:08:32;19.98;;;16.90;;
59876;SDS011;45749;51.140;17.184;2022-09-27T07:11:00;24.50;;;18.10;;
59876;SDS011;45749;51.140;17.184;2022-09-27T07:13:30;22.80;;;17.65;;
59876;SDS011;45749;51.140;17.184;2022-09-27T07:15:58;23.77;;;17.30;;
59876;SDS011;45749;51.140;17.184;2022-09-27T07:18:25;23.12;;;16.95;;
59876;SDS011;45749;51.140;17.184;2022-09-27T07:20:52;21.70;;;17.30;;
59876;SDS011;45749;51.140;17.184;2022-09-27T07:23:18;21.60;;;17.62;;
59876;SDS011;45749;51.140;17.184;2022-09-27T07:25:45;23.05;;;17.07;;
59876;SDS011;45749;51.140;17.184;2022-09-27T07:28:15;20.72;;;17.23;;
59876;SDS011;45749;51.140;17.184;2022-09-27T07:30:43;22.45;;;17.50;;
59876;SDS011;45749;51.140;17.184;2022-09-27T07:33:10;20.65;;;16.75;;
59876;SDS011;45749;51.140;17.184;2022-09-27T07:35:38;22.67;;;16.80;;
59876;SDS011;45749;51.140;17.184;2022-09-27T07:38:06;21.62;;;17.52;;
59876;SDS011;45749;51.140;17.184;2022-09-27T07:40:38;21.52;;;16.85;;
59876;SDS011;45749;51.140;17.184;2022-09-27T07:43:05;20.82;;;18.23;;
59876;SDS011;45749;51.140;17.184;2022-09-27T07:45:33;22.35;;;17.98;;
59876;SDS011;45749;51.140;17.184;2022-09-27T07:48:03;22.13;;;18.25;;
59876;SDS011;45749;51.140;17.184;2022-09-27T07:50:33;24.65;;;20.37;;
59876;SDS011;45749;51.140;17.184;2022-09-27T07:52:59;33.95;;;23.75;;
59876;SDS011;45749;51.140;17.184;2022-09-27T07:55:25;49.38;;;29.52;;
59876;SDS011;45749;51.140;17.184;2022-09-27T07:57:51;49.00;;;27.58;;
59876;SDS011;45749;51.140;17.184;2022-09-27T08:00:18;37.45;;;22.73;;
59876;SDS011;45749;51.140;17.184;2022-09-27T08:02:44;26.75;;;19.20;;
59876;SDS011;45749;51.140;17.184;2022-09-27T08:05:11;22.82;;;16.42;;
59876;SDS011;45749;51.140;17.184;2022-09-27T08:07:38;21.37;;;16.48;;
59876;SDS011;45749;51.140;17.184;2022-09-27T08:10:06;21.77;;;15.78;;
59876;SDS011;45749;51.140;17.184;2022-09-27T08:12:33;18.80;;;14.98;;
59876;SDS011;45749;51.140;17.184;2022-09-27T08:15:00;21.17;;;16.87;;
59876;SDS011;45749;51.140;17.184;2022-09-27T08:17:28;21.65;;;16.35;;
59876;SDS011;45749;51.140;17.184;2022-09-27T08:19:56;19.35;;;16.23;;
59876;SDS011;45749;51.140;17.184;2022-09-27T08:22:22;20.30;;;16.10;;
59876;SDS011;45749;51.140;17.184;2022-09-27T08:24:48;20.92;;;16.12;;
59876;SDS011;45749;51.140;17.184;2022-09-27T08:27:14;17.40;;;15.20;;
59876;SDS011;45749;51.140;17.184;2022-09-27T08:29:41;19.70;;;15.32;;
59876;SDS011;45749;51.140;17.184;2022-09-27T08:32:08;21.73;;;16.00;;
59876;SDS011;45749;51.140;17.184;2022-09-27T08:34:35;18.00;;;15.93;;
59876;SDS011;45749;51.140;17.184;2022-09-27T08:37:02;23.60;;;15.85;;
59876;SDS011;45749;51.140;17.184;2022-09-27T08:39:28;18.67;;;15.28;;
59876;SDS011;45749;51.140;17.184;2022-09-27T08:41:59;20.45;;;16.55;;
59876;SDS011;45749;51.140;17.184;2022-09-27T08:45:00;19.37;;;16.32;;
59876;SDS011;45749;51.140;17.184;2022-09-27T08:47:34;18.85;;;15.38;;
59876;SDS011;45749;51.140;17.184;2022-09-27T08:50:19;20.57;;;16.52;;
59876;SDS011;45749;51.140;17.184;2022-09-27T08:55:51;23.83;;;17.35;;
59876;SDS011;45749;51.140;17.184;2022-09-27T08:58:25;24.55;;;18.17;;
59876;SDS011;45749;51.140;17.184;2022-09-27T09:01:16;19.10;;;16.35;;
59876;SDS011;45749;51.140;17.184;2022-09-27T09:03:51;22.13;;;18.27;;
59876;SDS011;45749;51.140;17.184;2022-09-27T09:36:04;21.00;;;17.70;;
59876;SDS011;45749;51.140;17.184;2022-09-27T09:38:44;19.85;;;15.80;;
59876;SDS011;45749;51.140;17.184;2022-09-27T09:41:38;26.17;;;22.50;;
59876;SDS011;45749;51.140;17.184;2022-09-27T09:43:58;19.55;;;14.75;;
59876;SDS011;45749;51.140;17.184;2022-09-27T09:46:30;19.95;;;16.00;;
59876;SDS011;45749;51.140;17.184;2022-09-27T09:49:13;17.67;;;14.05;;
59876;SDS011;45749;51.140;17.184;2022-09-27T09:51:48;15.72;;;13.00;;
59876;SDS011;45749;51.140;17.184;2022-09-27T09:57:10;17.57;;;15.32;;
59876;SDS011;45749;51.140;17.184;2022-09-27T10:02:25;22.17;;;17.02;;
59876;SDS011;45749;51.140;17.184;2022-09-27T10:05:04;23.13;;;18.70;;
59876;SDS011;45749;51.140;17.184;2022-09-27T10:07:32;20.17;;;16.05;;
59876;SDS011;45749;51.140;17.184;2022-09-27T10:10:01;16.32;;;12.98;;
59876;SDS011;45749;51.140;17.184;2022-09-27T10:12:31;17.92;;;14.45;;
59876;SDS011;45749;51.140;17.184;2022-09-27T10:14:58;14.45;;;12.23;;
59876;SDS011;45749;51.140;17.184;2022-09-27T10:17:28;25.37;;;19.12;;
59876;SDS011;45749;51.140;17.184;2022-09-27T10:20:00;18.57;;;14.30;;
59876;SDS011;45749;51.140;17.184;2022-09-27T10:22:37;18.20;;;15.45;;
59876;SDS011;45749;51.140;17.184;2022-09-27T10:25:08;35.58;;;24.57;;
59876;SDS011;45749;51.140;17.184;2022-09-27T10:27:48;41.20;;;24.20;;
59876;SDS011;45749;51.140;17.184;2022-09-27T10:30:20;29.30;;;17.23;;
59876;SDS011;45749;51.140;17.184;2022-09-27T10:32:59;25.00;;;17.67;;
59876;SDS011;45749;51.140;17.184;2022-09-27T10:35:42;26.27;;;19.00;;
59876;SDS011;45749;51.140;17.184;2022-09-27T10:38:16;19.15;;;14.70;;
59876;SDS011;45749;51.140;17.184;2022-09-27T10:40:46;17.70;;;15.15;;
59876;SDS011;45749;51.140;17.184;2022-09-27T10:43:24;19.60;;;15.78;;
59876;SDS011;45749;51.140;17.184;2022-09-27T10:51:28;16.23;;;12.78;;
59876;SDS011;45749;51.140;17.184;2022-09-27T10:53:55;15.65;;;13.05;;
59876;SDS011;45749;51.140;17.184;2022-09-27T10:56:29;16.27;;;13.22;;
59876;SDS011;45749;51.140;17.184;2022-09-27T10:58:58;15.63;;;13.80;;
59876;SDS011;45749;51.140;17.184;2022-09-27T11:01:37;19.87;;;12.90;;
59876;SDS011;45749;51.140;17.184;2022-09-27T11:04:14;15.35;;;12.80;;
59876;SDS011;45749;51.140;17.184;2022-09-27T11:07:06;16.50;;;12.70;;
59876;SDS011;45749;51.140;17.184;2022-09-27T11:12:19;23.80;;;17.50;;
59876;SDS011;45749;51.140;17.184;2022-09-27T11:15:01;23.32;;;17.82;;
59876;SDS011;45749;51.140;17.184;2022-09-27T11:22:52;25.45;;;18.90;;
59876;SDS011;45749;51.140;17.184;2022-09-27T11:39:35;18.85;;;14.50;;
59876;SDS011;45749;51.140;17.184;2022-09-27T11:48:17;16.95;;;13.90;;
59876;SDS011;45749;51.140;17.184;2022-09-27T11:59:01;17.32;;;13.43;;
59876;SDS011;45749;51.140;17.184;2022-09-27T12:01:59;13.48;;;12.07;;
59876;SDS011;45749;51.140;17.184;2022-09-27T12:04:50;16.12;;;12.07;;
59876;SDS011;45749;51.140;17.184;2022-09-27T12:07:30;13.72;;;12.28;;
59876;SDS011;45749;51.140;17.184;2022-09-27T12:10:03;17.12;;;13.00;;
59876;SDS011;45749;51.140;17.184;2022-09-27T12:12:34;17.02;;;13.38;;
59876;SDS011;45749;51.140;17.184;2022-09-27T12:15:10;16.25;;;12.73;;
59876;SDS011;45749;51.140;17.184;2022-09-27T12:17:46;12.73;;;11.05;;
59876;SDS011;45749;51.140;17.184;2022-09-27T12:20:19;11.85;;;10.63;;
59876;SDS011;45749;51.140;17.184;2022-09-27T12:22:56;12.65;;;10.53;;
59876;SDS011;45749;51.140;17.184;2022-09-27T12:25:29;15.35;;;13.08;;
59876;SDS011;45749;51.140;17.184;2022-09-27T12:28:06;18.30;;;15.13;;
59876;SDS011;45749;51.140;17.184;2022-09-27T12:30:41;22.58;;;19.35;;
59876;SDS011;45749;51.140;17.184;2022-09-27T12:36:04;15.98;;;12.35;;
59876;SDS011;45749;51.140;17.184;2022-09-27T12:38:38;11.43;;;9.70;;
59876;SDS011;45749;51.140;17.184;2022-09-27T12:41:15;10.40;;;9.30;;
59876;SDS011;45749;51.140;17.184;2022-09-27T12:43:44;9.93;;;8.20;;
59876;SDS011;45749;51.140;17.184;2022-09-27T12:46:23;11.93;;;9.45;;
59876;SDS011;45749;51.140;17.184;2022-09-27T12:49:11;14.80;;;11.15;;
59876;SDS011;45749;51.140;17.184;2022-09-27T12:57:29;17.17;;;14.43;;
59876;SDS011;45749;51.140;17.184;2022-09-27T13:14:10;18.87;;;12.73;;
59876;SDS011;45749;51.140;17.184;2022-09-27T13:16:44;17.07;;;12.68;;
59876;SDS011;45749;51.140;17.184;2022-09-27T13:22:09;15.00;;;10.58;;
59876;SDS011;45749;51.140;17.184;2022-09-27T13:24:54;13.93;;;11.80;;
59876;SDS011;45749;51.140;17.184;2022-09-27T13:35:40;10.23;;;8.80;;
59876;SDS011;45749;51.140;17.184;2022-09-27T13:38:21;13.15;;;9.33;;
59876;SDS011;45749;51.140;17.184;2022-09-27T13:40:46;9.70;;;7.95;;
59876;SDS011;45749;51.140;17.184;2022-09-27T13:46:03;12.30;;;10.45;;
59876;SDS011;45749;51.140;17.184;2022-09-27T13:48:38;11.05;;;8.30;;
59876;SDS011;45749;51.140;17.184;2022-09-27T13:51:21;11.12;;;9.88;;
59876;SDS011;45749;51.140;17.184;2022-09-27T13:54:08;12.45;;;8.20;;
59876;SDS011;45749;51.140;17.184;2022-09-27T13:57:00;9.73;;;8.13;;
59876;SDS011;45749;51.140;17.184;2022-09-27T13:59:42;10.15;;;7.78;;
59876;SDS011;45749;51.140;17.184;2022-09-27T14:02:23;9.50;;;8.40;;
59876;SDS011;45749;51.140;17.184;2022-09-27T14:04:50;7.87;;;6.67;;
59876;SDS011;45749;51.140;17.184;2022-09-27T14:07:18;10.58;;;8.03;;
59876;SDS011;45749;51.140;17.184;2022-09-27T14:09:51;17.45;;;10.30;;
59876;SDS011;45749;51.140;17.184;2022-09-27T14:12:20;10.48;;;8.25;;
59876;SDS011;45749;51.140;17.184;2022-09-27T14:14:53;15.63;;;10.95;;
59876;SDS011;45749;51.140;17.184;2022-09-27T14:17:21;13.08;;;9.78;;
59876;SDS011;45749;51.140;17.184;2022-09-27T14:19:49;10.38;;;8.20;;
59876;SDS011;45749;51.140;17.184;2022-09-27T14:22:18;10.68;;;9.50;;
59876;SDS011;45749;51.140;17.184;2022-09-27T14:24:47;11.73;;;9.68;;
59876;SDS011;45749;51.140;17.184;2022-09-27T14:27:19;17.48;;;15.80;;
59876;SDS011;45749;51.140;17.184;2022-09-27T14:29:55;12.93;;;11.05;;
59876;SDS011;45749;51.140;17.184;2022-09-27T14:32:28;16.12;;;11.90;;
59876;SDS011;45749;51.140;17.184;2022-09-27T14:35:58;12.75;;;9.75;;
59876;SDS011;45749;51.140;17.184;2022-09-27T14:38:03;9.85;;;8.90;;
59876;SDS011;45749;51.140;17.184;2022-09-27T14:40:42;7.65;;;6.72;;
59876;SDS011;45749;51.140;17.184;2022-09-27T14:43:16;10.00;;;8.13;;
59876;SDS011;45749;51.140;17.184;2022-09-27T14:45:45;10.10;;;7.40;;
59876;SDS011;45749;51.140;17.184;2022-09-27T14:50:53;8.93;;;7.08;;
59876;SDS011;45749;51.140;17.184;2022-09-27T14:53:41;8.40;;;6.75;;
59876;SDS011;45749;51.140;17.184;2022-09-27T14:56:14;16.82;;;9.78;;
59876;SDS011;45749;51.140;17.184;2022-09-27T14:58:44;7.50;;;6.78;;
59876;SDS011;45749;51.140;17.184;2022-09-27T15:01:18;7.75;;;6.22;;
59876;SDS011;45749;51.140;17.184;2022-09-27T15:03:45;8.60;;;6.67;;
59876;SDS011;45749;51.140;17.184;2022-09-27T15:06:13;6.83;;;5.60;;
59876;SDS011;45749;51.140;17.184;2022-09-27T15:08:41;7.53;;;5.92;;
59876;SDS011;45749;51.140;17.184;2022-09-27T15:11:10;7.80;;;6.92;;
59876;SDS011;45749;51.140;17.184;2022-09-27T15:13:36;9.88;;;7.15;;
59876;SDS011;45749;51.140;17.184;2022-09-27T15:16:11;9.55;;;6.10;;
59876;SDS011;45749;51.140;17.184;2022-09-27T15:18:44;8.55;;;6.37;;
59876;SDS011;45749;51.140;17.184;2022-09-27T15:21:13;10.43;;;7.37;;
59876;SDS011;45749;51.140;17.184;2022-09-27T15:23:53;12.23;;;8.13;;
59876;SDS011;45749;51.140;17.184;2022-09-27T15:26:22;9.33;;;6.97;;
59876;SDS011;45749;51.140;17.184;2022-09-27T15:28:51;13.95;;;8.03;;
59876;SDS011;45749;51.140;17.184;2022-09-27T15:31:26;12.15;;;9.13;;
59876;SDS011;45749;51.140;17.184;2022-09-27T15:33:56;9.58;;;8.58;;
59876;SDS011;45749;51.140;17.184;2022-09-27T15:39:18;9.88;;;8.58;;
59876;SDS011;45749;51.140;17.184;2022-09-27T15:52:53;11.20;;;8.80;;
59876;SDS011;45749;51.140;17.184;2022-09-27T15:55:22;13.45;;;8.68;;
59876;SDS011;45749;51.140;17.184;2022-09-27T15:58:06;11.88;;;8.20;;
59876;SDS011;45749;51.140;17.184;2022-09-27T16:00:53;9.70;;;7.62;;
59876;SDS011;45749;51.140;17.184;2022-09-27T16:03:22;15.05;;;8.53;;
59876;SDS011;45749;51.140;17.184;2022-09-27T16:05:50;9.93;;;7.30;;
59876;SDS011;45749;51.140;17.184;2022-09-27T16:08:20;11.85;;;9.80;;
59876;SDS011;45749;51.140;17.184;2022-09-27T16:10:47;10.55;;;7.60;;
59876;SDS011;45749;51.140;17.184;2022-09-27T16:13:17;8.05;;;6.92;;
59876;SDS011;45749;51.140;17.184;2022-09-27T16:15:44;11.83;;;8.83;;
59876;SDS011;45749;51.140;17.184;2022-09-27T16:18:11;11.97;;;8.50;;
59876;SDS011;45749;51.140;17.184;2022-09-27T16:20:37;10.45;;;8.28;;
59876;SDS011;45749;51.140;17.184;2022-09-27T16:23:03;13.05;;;9.43;;
59876;SDS011;45749;51.140;17.184;2022-09-27T16:25:30;10.98;;;8.93;;
59876;SDS011;45749;51.140;17.184;2022-09-27T16:27:57;15.75;;;12.90;;
59876;SDS011;45749;51.140;17.184;2022-09-27T16:30:24;13.72;;;10.90;;
59876;SDS011;45749;51.140;17.184;2022-09-27T16:32:51;12.10;;;10.03;;
59876;SDS011;45749;51.140;17.184;2022-09-27T16:35:18;9.75;;;8.25;;
59876;SDS011;45749;51.140;17.184;2022-09-27T16:37:45;11.97;;;8.08;;
59876;SDS011;45749;51.140;17.184;2022-09-27T16:40:12;7.37;;;4.75;;
59876;SDS011;45749;51.140;17.184;2022-09-27T16:42:39;4.97;;;3.17;;
59876;SDS011;45749;51.140;17.184;2022-09-27T16:45:06;7.03;;;4.00;;
59876;SDS011;45749;51.140;17.184;2022-09-27T16:47:33;4.83;;;2.80;;
59876;SDS011;45749;51.140;17.184;2022-09-27T16:49:59;3.90;;;1.52;;
59876;SDS011;45749;51.140;17.184;2022-09-27T16:52:44;2.92;;;1.72;;
59876;SDS011;45749;51.140;17.184;2022-09-27T16:55:12;4.30;;;3.75;;
59876;SDS011;45749;51.140;17.184;2022-09-27T16:57:40;5.05;;;3.27;;
59876;SDS011;45749;51.140;17.184;2022-09-27T17:00:07;3.42;;;2.25;;
59876;SDS011;45749;51.140;17.184;2022-09-27T17:02:34;2.87;;;2.05;;
59876;SDS011;45749;51.140;17.184;2022-09-27T17:05:00;2.25;;;1.60;;
59876;SDS011;45749;51.140;17.184;2022-09-27T17:07:26;2.47;;;1.40;;
59876;SDS011;45749;51.140;17.184;2022-09-27T17:09:52;2.12;;;1.90;;
59876;SDS011;45749;51.140;17.184;2022-09-27T17:12:18;4.40;;;2.20;;
59876;SDS011;45749;51.140;17.184;2022-09-27T17:14:44;6.72;;;2.65;;
59876;SDS011;45749;51.140;17.184;2022-09-27T17:17:10;4.30;;;2.50;;
59876;SDS011;45749;51.140;17.184;2022-09-27T17:19:36;3.42;;;2.17;;
59876;SDS011;45749;51.140;17.184;2022-09-27T17:22:03;2.30;;;1.85;;
59876;SDS011;45749;51.140;17.184;2022-09-27T17:24:33;4.05;;;2.33;;
59876;SDS011;45749;51.140;17.184;2022-09-27T17:27:03;3.92;;;2.50;;
59876;SDS011;45749;51.140;17.184;2022-09-27T17:29:36;4.28;;;1.87;;
59876;SDS011;45749;51.140;17.184;2022-09-27T17:32:03;3.05;;;1.98;;